Ext Santa Elena, Puerto Rico
Current Conditions -  °F | °C
As of 4:56 PM on Saturday 20 Dec 2014 (Local Time) from TJSJ Reporting Station
Scattered Clouds Scattered Clouds  
Wind Chill: 81°   Ceiling: Unl
Heat Index: 85°   Visibility: 10mi
Dew Point: 72°   Wind: 14mph
Humidity: 74%   Direction: 70°ENE
Pressure: 29.98"   Gusts: NA
Location:  18.4519°N, 66.1817°W
Report Text: TJSJ 202056Z 07012KT 10SM FEW022 SCT060 27/22 A2998 RMK AO2 SLP152 T02720222 55002
Loading
Personal Weather Stations






























Interactive Weather Map New forecast layout! Learn more

10-Day Weather Forecast

Advertisements
Track Severe Weather on mobile